Terminal Aerodrome Forecast
Issued by NWS

Home | Current Version | Previous Version | Text Only | Print | Product List | Glossary On
Versions: 1 2 3 4 5 6 7 8 9 10 11 12 13 14 15 16 17 18 19 20 21 22 23 24 25 26 27 28 29
000
FTUS41 KCTP 082328
TAFJST
TAF
KJST 082328Z 0900/0924 28018G28KT 3/4SM -SHSN SCT009 BKN012 OVC025
     FM090600 29016G26KT 1SM -SHSN SCT009 BKN012 OVC025
     FM091700 30018G28KT 3SM -SHSN OVC025=

USA.gov is the U.S. government's official web portal to all federal, state and local government web resources and services.